Time;durP1;ratioP1;P1;durP2;ratioP2;P2;SDS_P1;SDS_P2;PMS_P1;PMS_P2;Temp;Humidity;BMP_temperature;BMP_pressure;BME280_temperature;BME280_humidity;BME280_pressure;Samples;Min_cycle;Max_cycle;Signal;HPM_P1;HPM_P2
2023/03/28 00:03:13;;;;;;;1.58;0.50;;;;;;;2.50;57.17;97905.34;10049662;29;20045;-77
2023/03/28 00:08:35;;;;;;;1.40;0.57;;;;;;;2.42;57.54;97910.81;10050441;29;20046;-77
2023/03/28 00:13:59;;;;;;;2.75;0.50;;;;;;;2.37;57.88;97922.69;10049498;29;20378;-77
2023/03/28 00:19:21;;;;;;;3.90;0.70;;;;;;;2.46;57.60;97918.72;10083767;29;20061;-77
2023/03/28 00:24:43;;;;;;;2.25;0.70;;;;;;;2.58;58.29;97923.44;10082976;29;20057;-77
2023/03/28 00:30:04;;;;;;;3.25;0.70;;;;;;;2.62;57.78;97925.16;10076682;29;20101;-78
2023/03/28 00:35:26;;;;;;;1.75;0.60;;;;;;;2.67;57.59;97921.50;10075288;29;20396;-77
2023/03/28 00:40:48;;;;;;;4.78;0.50;;;;;;;2.75;57.79;97917.53;10073703;29;20041;-77
2023/03/28 00:46:17;;;;;;;5.00;0.60;;;;;;;2.81;57.65;97920.19;10073723;29;20053;-77
2023/03/28 00:51:58;;;;;;;1.63;0.50;;;;;;;2.80;57.43;97918.69;10085610;29;20438;-77
2023/03/28 00:57:19;;;;;;;4.57;1.10;;;;;;;2.69;58.20;97916.94;10059978;29;20389;-78
2023/03/28 01:02:41;;;;;;;2.83;0.50;;;;;;;2.71;57.58;97916.41;10073423;29;20045;-78
2023/03/28 01:08:16;;;;;;;4.80;0.82;;;;;;;2.66;58.13;97904.22;10072975;29;20053;-77
2023/03/28 01:13:40;;;;;;;1.92;0.82;;;;;;;2.65;57.56;97908.25;10072973;29;20049;-77
2023/03/28 01:19:03;;;;;;;5.05;1.25;;;;;;;2.66;57.79;97903.50;10086143;29;20057;-77
2023/03/28 01:25:08;;;;;;;3.80;0.70;;;;;;;2.65;58.35;97910.28;10072514;29;20053;-78
2023/03/28 01:30:30;;;;;;;2.30;0.70;;;;;;;2.74;58.14;97918.09;10085243;29;20051;-77
2023/03/28 01:36:29;;;;;;;3.10;0.68;;;;;;;2.77;57.89;97911.50;10088080;29;20357;-77
2023/03/28 01:41:59;;;;;;;3.35;0.70;;;;;;;2.80;57.46;97904.91;10085774;29;20508;-77
2023/03/28 01:47:25;;;;;;;1.40;0.50;;;;;;;2.89;57.32;97904.41;10084516;29;20056;-78
2023/03/28 01:53:15;;;;;;;3.50;0.68;;;;;;;2.93;56.98;97910.34;10085665;29;20495;-77
2023/03/28 01:58:54;;;;;;;2.85;0.40;;;;;;;2.90;56.76;97910.69;10085684;29;20113;-78
2023/03/28 02:04:27;;;;;;;1.48;0.30;;;;;;;2.91;57.19;97890.13;10084525;29;20049;-77
2023/03/28 02:09:51;;;;;;;1.67;0.40;;;;;;;2.93;56.83;97891.03;10075440;29;20040;-77
2023/03/28 02:15:30;;;;;;;3.00;0.70;;;;;;;2.93;56.62;97893.81;10084624;29;20056;-78
2023/03/28 02:21:15;;;;;;;4.85;0.50;;;;;;;2.79;56.82;97895.16;10083314;29;20057;-77
2023/03/28 02:27:07;;;;;;;3.20;0.70;;;;;;;2.68;57.54;97889.91;10083270;29;20057;-78
2023/03/28 02:32:34;;;;;;;3.33;0.60;;;;;;;2.76;57.29;97890.72;10079770;29;20053;-77
2023/03/28 02:38:15;;;;;;;1.20;0.43;;;;;;;2.83;57.29;97901.06;10077984;29;20045;-78
2023/03/28 02:43:46;;;;;;;2.03;0.47;;;;;;;2.93;56.81;97910.34;10061426;29;20080;-77
2023/03/28 02:49:21;;;;;;;2.88;0.32;;;;;;;3.07;57.17;97933.06;10077725;29;20048;-77
2023/03/28 02:54:51;;;;;;;1.48;0.50;;;;;;;3.04;58.25;97931.41;10089980;29;20049;-77
2023/03/28 03:00:22;;;;;;;1.95;0.38;;;;;;;2.91;58.88;97926.69;10079062;29;20053;-77
2023/03/28 03:05:43;;;;;;;3.17;0.40;;;;;;;2.81;58.47;97925.69;10076135;29;20049;-77
2023/03/28 03:11:05;;;;;;;2.28;0.60;;;;;;;2.85;58.57;97926.09;10076873;29;20511;-78
2023/03/28 03:16:27;;;;;;;1.75;0.40;;;;;;;2.94;57.95;97930.38;10076295;29;20052;-78
2023/03/28 03:21:50;;;;;;;4.10;0.50;;;;;;;2.93;57.76;97921.38;10076210;29;20041;-77
2023/03/28 03:27:14;;;;;;;2.70;0.40;;;;;;;2.91;57.47;97921.19;10076804;29;20472;-78
2023/03/28 03:32:38;;;;;;;2.47;0.35;;;;;;;3.01;57.36;97919.44;10075378;29;20543;-77
2023/03/28 03:37:59;;;;;;;5.10;0.50;;;;;;;3.12;56.96;97923.91;10096122;29;20044;-78
2023/03/28 03:43:20;;;;;;;3.50;0.38;;;;;;;3.12;57.12;97932.94;10096817;29;20071;-77
2023/03/28 03:48:41;;;;;;;1.73;0.20;;;;;;;3.10;57.43;97941.00;10094422;29;20076;-80
2023/03/28 03:54:10;;;;;;;3.13;0.50;;;;;;;2.93;57.92;97943.44;10082973;29;20052;-80
2023/03/28 03:59:33;;;;;;;0.95;0.20;;;;;;;2.89;58.66;97943.03;10099422;29;20056;-79
2023/03/28 04:04:55;;;;;;;2.58;0.60;;;;;;;2.88;58.77;97947.06;10081097;29;20411;-80
2023/03/28 04:10:20;;;;;;;3.30;0.68;;;;;;;2.87;58.54;97951.09;10094181;29;20122;-80
2023/03/28 04:16:28;;;;;;;2.13;0.30;;;;;;;2.86;58.96;97960.66;10086074;29;20041;-80
2023/03/28 04:22:03;;;;;;;3.38;0.30;;;;;;;2.88;58.47;97949.81;10114235;29;20048;-79
2023/03/28 04:27:28;;;;;;;6.35;0.50;;;;;;;2.88;59.01;97952.56;10095852;29;20041;-79
2023/03/28 04:32:53;;;;;;;4.63;0.40;;;;;;;2.97;59.80;97976.91;10114879;29;20045;-77
2023/03/28 04:38:20;;;;;;;6.40;0.60;;;;;;;2.82;60.01;97974.78;10087037;29;20059;-77
2023/03/28 04:43:49;;;;;;;2.90;0.60;;;;;;;2.68;59.71;97989.13;10096439;29;20049;-77
2023/03/28 04:49:10;;;;;;;2.83;0.45;;;;;;;2.67;61.11;97995.94;10076576;29;20044;-79
2023/03/28 04:54:32;;;;;;;1.55;0.30;;;;;;;2.43;62.28;98005.22;10076761;29;20045;-80
2023/03/28 04:59:58;;;;;;;1.48;0.22;;;;;;;2.10;62.14;98006.63;10099888;29;20123;-80
2023/03/28 05:05:38;;;;;;;1.83;0.50;;;;;;;2.10;63.81;98004.63;10103125;29;20526;-80
2023/03/28 05:11:03;;;;;;;4.47;0.30;;;;;;;2.30;63.50;98003.97;10097261;29;20071;-80
2023/03/28 05:16:24;;;;;;;3.47;0.40;;;;;;;2.32;63.56;98005.44;10093840;29;20041;-79
2023/03/28 05:22:04;;;;;;;2.70;0.30;;;;;;;2.42;62.83;98059.59;10098613;29;21349;-80
2023/03/28 05:27:27;;;;;;;3.90;0.40;;;;;;;2.37;64.55;98041.16;10074273;29;20042;-79
2023/03/28 05:32:48;;;;;;;0.98;0.35;;;;;;;1.67;68.36;98043.50;10096486;29;20127;-80
2023/03/28 05:38:10;;;;;;;1.00;0.30;;;;;;;1.64;69.22;98069.28;10080215;29;20179;-80
2023/03/28 05:43:32;;;;;;;3.22;0.55;;;;;;;1.71;70.37;98077.66;10094767;29;20044;-80
2023/03/28 05:48:53;;;;;;;4.63;0.70;;;;;;;1.85;69.66;98086.72;10103960;29;20067;-80
2023/03/28 05:54:15;;;;;;;2.22;0.77;;;;;;;1.92;69.31;98105.34;10105617;29;20044;-80
2023/03/28 05:59:39;;;;;;;3.22;0.40;;;;;;;2.10;70.55;98105.78;10110832;29;20048;-80
2023/03/28 06:05:02;;;;;;;;;;;;;;;2.75;70.35;98110.50;10114846;29;20049;-81
2023/03/28 06:10:24;;;;;;;2.47;0.20;;;;;;;2.78;67.75;98116.97;10106703;29;19934;-79
2023/03/28 06:16:02;;;;;;;2.10;0.60;;;;;;;2.36;69.16;98136.09;10100333;29;20037;-79
2023/03/28 06:21:26;;;;;;;2.13;0.38;;;;;;;3.41;71.13;98129.63;10086156;29;20419;-77
2023/03/28 06:26:48;;;;;;;1.77;0.50;;;;;;;10.80;66.96;98142.84;10099534;29;20056;-77
2023/03/28 06:32:14;;;;;;;2.70;0.60;;;;;;;13.88;49.89;98145.22;10099094;29;20559;-78
2023/03/28 06:37:35;;;;;;;3.03;0.30;;;;;;;9.09;51.03;98154.97;10093162;29;20049;-77
2023/03/28 06:43:00;;;;;;;2.05;0.40;;;;;;;6.70;52.69;98177.94;10076300;29;20512;-76
2023/03/28 06:48:36;;;;;;;2.53;0.40;;;;;;;6.42;57.29;98185.22;10114641;29;20474;-76
2023/03/28 06:54:16;;;;;;;3.50;0.52;;;;;;;6.42;56.09;98190.00;10128925;29;20053;-77
2023/03/28 06:59:37;;;;;;;2.53;0.50;;;;;;;5.80;56.00;98205.88;10105200;29;20052;-77
2023/03/28 07:05:04;;;;;;;1.95;0.60;;;;;;;6.25;55.96;98207.22;10062228;29;20053;-77
2023/03/28 07:10:25;;;;;;;2.97;0.70;;;;;;;5.64;56.99;98230.00;10096379;29;20071;-77
2023/03/28 07:15:47;;;;;;;2.70;0.80;;;;;;;5.24;57.09;98231.72;10113205;29;20503;-77
2023/03/28 07:21:09;;;;;;;3.35;0.50;;;;;;;4.94;57.78;98241.34;10125752;29;20408;-77
2023/03/28 07:26:31;;;;;;;2.67;0.50;;;;;;;4.95;58.63;98248.38;10099723;29;20044;-77
2023/03/28 07:31:52;;;;;;;2.20;0.60;;;;;;;5.81;59.39;98256.47;10109901;29;20049;-77
2023/03/28 07:37:13;;;;;;;5.18;0.90;;;;;;;8.38;55.39;98254.94;10102653;29;20045;-77
2023/03/28 07:42:43;;;;;;;3.20;0.82;;;;;;;20.73;44.21;98269.44;10097141;29;20479;-78
2023/03/28 07:48:05;;;;;;;2.05;0.60;;;;;;;29.01;37.27;98282.22;10092808;29;20052;-78
2023/03/28 07:53:27;;;;;;;1.77;0.60;;;;;;;33.31;28.95;98287.00;10073446;29;20489;-78
2023/03/28 07:58:48;;;;;;;1.40;0.40;;;;;;;36.42;23.90;98302.38;10091410;29;20329;-80
2023/03/28 08:04:10;;;;;;;;;;;;;;;36.73;14.79;98301.50;10124057;29;20132;-80
2023/03/28 08:09:49;;;;;;;1.00;0.40;;;;;;;36.30;16.01;98305.59;10108085;29;19950;-80
2023/03/28 08:15:27;;;;;;;1.25;0.47;;;;;;;37.54;14.13;98310.72;10099541;29;20044;-80
2023/03/28 08:20:56;;;;;;;1.50;0.50;;;;;;;39.34;12.49;98310.97;10110410;29;20068;-81
2023/03/28 08:26:18;;;;;;;1.40;0.40;;;;;;;40.42;10.12;98313.06;10108667;29;20108;-82
2023/03/28 08:31:44;;;;;;;1.20;0.30;;;;;;;39.83;8.65;98318.50;10098086;29;20108;-81
2023/03/28 08:37:07;;;;;;;1.55;0.32;;;;;;;39.22;8.04;98312.16;10110060;29;20049;-83
2023/03/28 08:42:56;;;;;;;0.65;0.28;;;;;;;37.04;7.43;98322.44;10100695;29;20056;-83
2023/03/28 08:48:30;;;;;;;1.45;0.28;;;;;;;29.95;8.91;98325.47;10087859;29;20478;-82
2023/03/28 08:54:07;;;;;;;2.55;0.30;;;;;;;24.69;12.16;98324.88;10094909;29;20045;-80
2023/03/28 08:59:42;;;;;;;1.25;0.20;;;;;;;22.57;13.15;98337.28;10090724;29;20049;-80
2023/03/28 09:05:05;;;;;;;1.80;0.45;;;;;;;27.18;13.47;98344.72;10073680;29;20391;-82
2023/03/28 09:11:04;;;;;;;1.67;0.40;;;;;;;35.74;7.08;98349.81;10070962;29;20049;-90
2023/03/28 09:16:42;;;;;;;1.98;0.30;;;;;;;39.55;6.10;98355.38;10082018;29;20052;-79
2023/03/28 09:22:20;;;;;;;1.30;0.30;;;;;;;40.39;4.07;98363.69;10081745;29;20037;-82
2023/03/28 09:28:08;;;;;;;1.73;0.50;;;;;;;39.61;4.91;98363.22;10100298;29;20048;-83
2023/03/28 09:33:33;;;;;;;1.30;0.30;;;;;;;40.83;5.00;98355.19;10077983;29;20060;-91
2023/03/28 09:39:03;;;;;;;1.70;0.40;;;;;;;40.82;3.79;98365.44;10056953;29;20041;-90
2023/03/28 09:44:29;;;;;;;1.40;0.28;;;;;;;38.86;4.30;98367.47;10065015;29;20045;-91
2023/03/28 09:50:27;;;;;;;2.08;0.30;;;;;;;28.54;6.97;98371.00;10063023;29;20093;-92
2023/03/28 09:55:52;;;;;;;1.55;0.50;;;;;;;28.82;8.25;98372.59;10034818;29;20041;-82
2023/03/28 10:01:44;;;;;;;1.55;0.40;;;;;;;26.80;9.84;98380.03;10072675;29;20046;-92
2023/03/28 10:07:07;;;;;;;3.85;0.50;;;;;;;24.15;9.39;98380.03;10032128;29;20042;-87
2023/03/28 10:12:32;;;;;;;2.05;0.45;;;;;;;27.54;10.14;98384.50;10043685;29;20041;-82
2023/03/28 10:17:53;;;;;;;0.93;0.20;;;;;;;34.63;6.97;98373.88;10043027;29;20061;-82
2023/03/28 10:23:22;;;;;;;0.50;0.20;;;;;;;36.58;5.67;98389.16;10032807;29;20065;-81
2023/03/28 10:28:47;;;;;;;0.82;0.10;;;;;;;37.07;5.00;98390.00;10031453;29;20295;-82
2023/03/28 10:34:28;;;;;;;0.90;0.13;;;;;;;39.78;3.63;98372.75;10037401;29;20046;-81
2023/03/28 10:40:22;;;;;;;1.05;0.10;;;;;;;42.00;2.52;98383.41;10042861;29;20415;-82
2023/03/28 10:46:06;;;;;;;0.57;0.10;;;;;;;42.01;2.55;98402.41;10063011;29;20416;-82
2023/03/28 10:51:41;;;;;;;2.40;0.20;;;;;;;41.21;2.40;98402.47;10038483;29;20049;-83
2023/03/28 10:57:12;;;;;;;0.98;0.20;;;;;;;40.57;2.23;98392.88;10036565;29;20060;-82
2023/03/28 11:02:37;;;;;;;1.05;0.22;;;;;;;38.65;2.47;98419.97;10036634;29;20069;-83
2023/03/28 11:08:43;;;;;;;1.08;0.20;;;;;;;31.02;4.89;98403.06;10050392;29;20072;-82
2023/03/28 11:14:17;;;;;;;1.83;0.22;;;;;;;26.44;7.12;98402.41;10049520;29;20513;-81
2023/03/28 11:20:00;;;;;;;2.53;0.40;;;;;;;24.32;8.47;98391.81;10049091;29;20104;-81
2023/03/28 11:25:36;;;;;;;1.77;0.40;;;;;;;22.42;9.33;98377.38;10049260;29;20054;-81
2023/03/28 11:31:54;;;;;;;2.85;0.52;;;;;;;20.86;10.35;98399.75;10019063;29;20057;-82
2023/03/28 11:37:18;;;;;;;0.63;0.20;;;;;;;18.23;11.38;98387.06;10035328;29;20061;-82
2023/03/28 11:42:45;;;;;;;3.70;0.38;;;;;;;17.52;12.48;98412.50;10047212;29;20082;-83
2023/03/28 11:48:10;;;;;;;4.28;0.50;;;;;;;17.10;12.57;98396.97;10035424;29;20045;-82
2023/03/28 11:53:58;;;;;;;1.88;0.30;;;;;;;15.88;13.63;98402.28;10035721;29;20053;-82
2023/03/28 11:59:32;;;;;;;2.63;0.60;;;;;;;15.94;14.04;98393.44;10067094;29;20397;-83
2023/03/28 12:05:11;;;;;;;3.85;0.60;;;;;;;16.87;15.03;98407.03;10069430;29;20591;-82
2023/03/28 12:10:36;;;;;;;1.30;0.40;;;;;;;16.48;14.30;98404.19;10081808;29;20445;-84
2023/03/28 12:16:07;;;;;;;4.93;0.50;;;;;;;14.90;14.97;98415.44;10070347;29;20041;-79
2023/03/28 12:29:29;;;;;;;4.95;1.50;;;;;;;15.15;17.22;98383.91;10118383;29;20061;-81
2023/03/28 12:47:40;;;;;;;3.13;0.60;;;;;;;14.94;17.23;98407.25;11671928;23;20109;-80
2023/03/28 12:53:02;;;;;;;2.67;0.52;;;;;;;13.94;17.05;98406.59;10112147;24;20072;-79
2023/03/28 12:58:34;;;;;;;3.92;0.70;;;;;;;13.79;17.21;98409.09;10116444;29;20119;-80
2023/03/28 13:04:24;;;;;;;1.95;0.80;;;;;;;13.21;17.87;98412.97;10075490;29;20045;-80
2023/03/28 13:10:06;;;;;;;3.53;0.60;;;;;;;13.26;18.24;98423.16;10079035;29;20049;-80
2023/03/28 13:15:31;;;;;;;1.83;0.70;;;;;;;13.07;19.47;98412.75;10069452;29;20034;-80
2023/03/28 13:20:56;;;;;;;8.18;0.80;;;;;;;13.27;19.01;98412.69;10240931;23;20059;-76
2023/03/28 13:26:17;;;;;;;2.22;0.47;;;;;;;13.09;19.00;98412.88;10086134;23;20084;-79
2023/03/28 13:31:40;;;;;;;1.17;0.60;;;;;;;13.46;18.89;98404.16;10058124;29;20053;-78
2023/03/28 13:37:16;;;;;;;1.90;0.40;;;;;;;13.22;19.03;98403.28;10066990;29;20041;-78
2023/03/28 13:55:29;;;;;;;2.72;0.60;;;;;;;13.58;19.31;98407.03;10977247;23;20070;-79
2023/03/28 14:13:27;;;;;;;2.83;0.50;;;;;;;14.40;18.47;98422.16;9920558;27;20057;-78
2023/03/28 14:18:49;;;;;;;4.30;0.40;;;;;;;14.11;18.70;98408.41;10012785;29;20417;-76
2023/03/28 14:24:12;;;;;;;2.70;0.60;;;;;;;13.71;18.93;98407.25;9966494;29;20047;-77
2023/03/28 14:29:33;;;;;;;1.57;0.60;;;;;;;13.23;18.89;98396.31;9967150;29;20079;-76
2023/03/28 14:34:54;;;;;;;3.30;0.50;;;;;;;12.93;19.48;98413.81;9996006;29;20125;-76
2023/03/28 14:40:26;;;;;;;3.33;0.60;;;;;;;12.93;20.05;98403.34;10005584;29;20485;-76
2023/03/28 14:45:51;;;;;;;3.90;0.77;;;;;;;12.49;19.92;98398.19;10005598;29;20118;-76
2023/03/28 14:51:12;;;;;;;1.80;0.50;;;;;;;12.37;20.80;98400.16;10005484;29;20074;-77
2023/03/28 14:56:33;;;;;;;3.55;0.60;;;;;;;12.14;20.62;98404.13;10002856;29;20074;-77
2023/03/28 15:01:54;;;;;;;5.00;0.60;;;;;;;11.95;20.82;98404.16;10000191;29;20111;-75
2023/03/28 15:07:25;;;;;;;3.55;0.43;;;;;;;11.41;21.74;98405.13;9981667;29;20047;-76
2023/03/28 15:12:47;;;;;;;2.53;0.68;;;;;;;11.27;21.70;98408.91;9994312;29;20057;-77
2023/03/28 15:18:13;;;;;;;3.92;0.60;;;;;;;11.21;22.37;98411.97;9991580;29;20053;-76
2023/03/28 15:23:45;;;;;;;4.65;0.80;;;;;;;11.30;22.57;98416.13;9992881;29;20093;-76
2023/03/28 15:29:06;;;;;;;2.95;0.55;;;;;;;11.31;22.56;98428.78;10002458;29;20057;-76
2023/03/28 15:34:27;;;;;;;4.43;0.65;;;;;;;11.26;23.02;98424.94;9999039;29;20053;-75
2023/03/28 15:39:49;;;;;;;2.42;0.80;;;;;;;11.12;23.93;98432.97;9965401;29;20050;-75
2023/03/28 15:45:21;;;;;;;3.97;0.90;;;;;;;10.89;24.05;98440.97;9991867;29;20083;-75
2023/03/28 15:50:45;;;;;;;4.28;0.93;;;;;;;11.03;24.21;98444.13;9998415;29;20049;-77
2023/03/28 15:56:10;;;;;;;3.25;0.60;;;;;;;10.96;24.31;98437.31;9959200;29;20054;-77
2023/03/28 16:01:31;;;;;;;3.70;0.98;;;;;;;10.69;25.00;98442.19;9963564;29;20077;-75
2023/03/28 16:07:11;;;;;;;3.65;0.60;;;;;;;10.59;25.63;98448.44;9973217;29;20536;-76
2023/03/28 16:18:47;;;;;;;1.70;0.40;;;;;;;9.85;25.70;98448.78;11794896;23;20067;-77
2023/03/28 16:24:08;;;;;;;4.28;0.60;;;;;;;9.67;26.19;98464.75;10068562;29;20184;-77
2023/03/28 16:29:30;;;;;;;2.60;0.65;;;;;;;9.46;26.46;98465.13;10084439;29;20029;-82
2023/03/28 16:35:36;;;;;;;3.95;0.85;;;;;;;9.25;26.60;98473.81;10623097;23;20048;31
2023/03/28 16:47:14;;;;;;;4.38;0.88;;;;;;;9.09;27.17;98475.25;11145840;23;20084;-77
2023/03/28 16:52:37;;;;;;;5.72;1.05;;;;;;;9.05;27.73;98472.09;10106221;29;20037;-78
2023/03/28 16:57:58;;;;;;;6.47;0.83;;;;;;;8.86;27.96;98475.38;10064651;29;20125;-74
2023/03/28 17:03:29;;;;;;;8.98;1.40;;;;;;;8.61;28.18;98475.34;10087928;29;20055;-75
2023/03/28 17:08:52;;;;;;;5.80;1.55;;;;;;;8.47;28.73;98483.19;10079286;29;20041;-76
2023/03/28 17:14:13;;;;;;;7.45;1.20;;;;;;;8.30;28.97;98481.03;10024098;29;20520;-77
2023/03/28 17:19:33;;;;;;;3.72;1.20;;;;;;;8.20;29.17;98488.47;10024484;29;20045;-76
2023/03/28 17:24:55;;;;;;;7.68;1.50;;;;;;;8.21;29.44;98489.22;10022053;29;20046;-75
2023/03/28 17:30:16;;;;;;;3.90;1.60;;;;;;;8.15;29.86;98492.19;10048412;29;20506;-75
2023/03/28 17:35:37;;;;;;;5.75;1.20;;;;;;;8.10;30.15;98490.34;10057870;29;20453;-75
2023/03/28 17:40:59;;;;;;;7.15;1.10;;;;;;;8.01;30.47;98493.72;10073542;29;20044;-76
2023/03/28 17:46:23;;;;;;;6.18;1.10;;;;;;;7.93;30.76;98495.78;10067931;29;20073;-75
2023/03/28 17:51:44;;;;;;;2.70;0.73;;;;;;;7.79;31.15;98491.72;10065565;29;20045;-75
2023/03/28 17:57:07;;;;;;;4.07;0.80;;;;;;;7.59;31.50;98493.41;10062716;29;20072;-75
2023/03/28 18:02:28;;;;;;;4.80;1.23;;;;;;;7.44;31.75;98486.56;10060766;29;20068;-76
2023/03/28 18:08:03;;;;;;;3.33;1.05;;;;;;;7.33;31.80;98488.94;10078804;29;20506;-75
2023/03/28 18:13:25;;;;;;;5.43;2.63;;;;;;;7.21;32.13;98504.50;10074387;29;20041;-75
2023/03/28 18:18:46;;;;;;;8.82;1.90;;;;;;;7.06;32.46;98500.44;10065146;29;20102;-77
2023/03/28 18:24:07;;;;;;;3.92;1.92;;;;;;;6.93;32.77;98497.78;10078341;29;20065;-77
2023/03/28 18:29:29;;;;;;;6.43;1.95;;;;;;;6.87;33.45;98500.03;10065972;29;20064;-74
2023/03/28 18:34:50;;;;;;;3.28;1.13;;;;;;;6.76;33.46;98501.09;10057704;29;20037;-76
2023/03/28 18:40:13;;;;;;;5.53;1.35;;;;;;;6.66;33.32;98491.06;10059453;29;20048;-76
2023/03/28 18:45:34;;;;;;;4.55;1.17;;;;;;;6.57;34.20;98486.81;10059218;29;20109;-78
2023/03/28 18:50:56;;;;;;;5.68;1.63;;;;;;;6.49;34.35;98488.81;10075982;29;20135;-77
2023/03/28 18:56:17;;;;;;;6.68;1.70;;;;;;;6.41;34.64;98476.94;10052249;29;20056;-77
2023/03/28 19:01:40;;;;;;;5.25;1.80;;;;;;;6.37;35.13;98487.63;10068203;29;20049;-76
2023/03/28 19:07:05;;;;;;;4.93;2.63;;;;;;;6.31;35.29;98485.78;10058336;29;20074;-79
2023/03/28 19:12:26;;;;;;;6.95;3.30;;;;;;;6.25;35.39;98487.97;10050154;29;20121;-74
2023/03/28 19:17:46;;;;;;;6.28;2.78;;;;;;;6.19;35.32;98475.56;10067273;29;20073;-74
2023/03/28 19:23:07;;;;;;;9.18;4.80;;;;;;;6.10;35.72;98482.34;10058919;29;20484;-75
2023/03/28 19:28:28;;;;;;;11.00;4.63;;;;;;;6.06;35.97;98483.97;10080704;29;20132;-76
2023/03/28 19:33:49;;;;;;;6.47;2.67;;;;;;;5.95;36.14;98482.28;10058312;29;20060;-76
2023/03/28 19:39:10;;;;;;;5.13;2.13;;;;;;;5.87;36.58;98482.19;10035802;29;20489;-76
2023/03/28 19:44:31;;;;;;;8.38;2.58;;;;;;;5.75;37.05;98473.44;10054134;29;20053;-76
2023/03/28 19:49:53;;;;;;;13.93;5.00;;;;;;;5.65;37.29;98482.78;10040370;29;20070;-77
2023/03/28 19:55:13;;;;;;;13.82;5.25;;;;;;;5.54;37.62;98500.44;10050829;29;20050;-76
2023/03/28 20:00:34;;;;;;;9.02;2.88;;;;;;;5.53;37.66;98493.44;10051769;29;20056;-76
2023/03/28 20:05:55;;;;;;;9.35;3.20;;;;;;;5.49;38.28;98481.19;10051613;29;20041;-77
2023/03/28 20:11:54;;;;;;;10.35;3.80;;;;;;;5.47;38.57;98488.03;11155839;23;21032;31
2023/03/28 20:17:16;;;;;;;11.68;4.22;;;;;;;5.45;38.54;98481.56;9985548;29;20054;-75
2023/03/28 20:22:37;;;;;;;14.32;6.57;;;;;;;5.35;39.00;98488.84;9959865;29;20069;-77
2023/03/28 20:28:01;;;;;;;9.32;4.07;;;;;;;5.31;39.71;98488.47;9963103;29;20074;-76
2023/03/28 20:33:22;;;;;;;12.33;3.70;;;;;;;5.30;39.64;98484.19;9971834;29;20055;-76
2023/03/28 20:38:46;;;;;;;10.80;3.15;;;;;;;5.33;40.29;98486.63;9971739;29;20043;-77
2023/03/28 20:44:15;;;;;;;;;;;;;;;5.33;40.61;98480.34;9973238;29;20122;-76
2023/03/28 20:49:44;;;;;;;7.60;2.28;;;;;;;5.35;40.20;98477.78;9985028;29;20482;-76
2023/03/28 20:55:06;;;;;;;6.30;2.15;;;;;;;5.40;40.11;98471.34;9973962;29;20047;-76
2023/03/28 21:00:34;;;;;;;6.20;2.20;;;;;;;5.35;39.87;98461.91;9973403;29;20110;-76
2023/03/28 21:05:56;;;;;;;7.63;2.15;;;;;;;5.35;40.37;98447.31;9993248;29;20038;-76
2023/03/28 21:11:18;;;;;;;10.10;2.20;;;;;;;5.34;40.25;98443.81;10017618;29;20378;-77
2023/03/28 21:16:39;;;;;;;5.32;1.75;;;;;;;5.39;40.46;98445.69;9995696;29;20065;-76
2023/03/28 21:22:00;;;;;;;5.70;1.60;;;;;;;5.44;40.47;98436.50;10003045;29;20405;-76
2023/03/28 21:27:21;;;;;;;6.03;2.15;;;;;;;5.41;41.07;98429.28;9997983;29;20057;-77
2023/03/28 21:32:42;;;;;;;4.18;1.73;;;;;;;5.33;40.78;98431.25;10007096;29;20046;-76
2023/03/28 21:38:02;;;;;;;4.90;1.33;;;;;;;5.31;40.60;98424.78;10006834;29;20489;-77
2023/03/28 21:43:23;;;;;;;6.60;1.35;;;;;;;5.33;40.89;98417.41;10006271;29;20073;-76
2023/03/28 21:48:46;;;;;;;6.07;1.50;;;;;;;5.28;40.72;98414.78;9992191;29;20504;-77
2023/03/28 21:54:07;;;;;;;5.20;1.40;;;;;;;5.17;41.28;98429.66;10006525;29;20512;-77
2023/03/28 21:59:28;;;;;;;6.45;1.90;;;;;;;5.01;41.64;98425.28;10005992;29;20057;-77
2023/03/28 22:04:49;;;;;;;6.55;2.10;;;;;;;4.91;41.56;98413.19;10005941;29;20050;-77
2023/03/28 22:10:10;;;;;;;6.72;1.77;;;;;;;4.88;41.87;98415.78;10006307;29;20481;-77
2023/03/28 22:15:31;;;;;;;6.85;2.83;;;;;;;4.78;42.18;98414.03;10006120;29;20054;-76
2023/03/28 22:20:52;;;;;;;8.10;2.90;;;;;;;4.76;42.08;98411.81;10005466;29;20049;-76
2023/03/28 22:26:14;;;;;;;6.60;3.15;;;;;;;4.75;42.21;98401.28;9994812;29;20050;-77
2023/03/28 22:31:35;;;;;;;8.38;2.50;;;;;;;4.71;42.25;98390.53;10000508;29;20496;-76
2023/03/28 22:36:57;;;;;;;10.75;3.28;;;;;;;4.73;41.70;98381.69;10012225;29;20072;-76
2023/03/28 22:42:18;;;;;;;10.30;3.10;;;;;;;4.71;42.99;98375.97;10012110;29;20492;-77
2023/03/28 22:47:39;;;;;;;10.00;3.00;;;;;;;4.68;42.29;98369.50;10011876;29;20428;-76
2023/03/28 22:53:01;;;;;;;9.20;3.40;;;;;;;4.59;42.64;98367.94;10011428;29;20525;-76
2023/03/28 22:58:22;;;;;;;9.70;3.72;;;;;;;4.53;42.65;98370.09;10011518;29;20476;-76
2023/03/28 23:03:43;;;;;;;13.15;5.00;;;;;;;4.46;43.05;98367.28;9998781;29;20046;-76
2023/03/28 23:09:03;;;;;;;13.95;5.88;;;;;;;4.35;43.00;98367.53;10011146;29;20046;-76
2023/03/28 23:14:24;;;;;;;14.75;7.10;;;;;;;4.26;43.30;98372.25;10011752;29;20077;-77
2023/03/28 23:19:46;;;;;;;16.50;7.03;;;;;;;4.09;43.25;98360.81;9998099;29;20495;-77
2023/03/28 23:25:11;;;;;;;14.93;6.33;;;;;;;4.10;43.50;98361.56;10010463;29;20057;-76
2023/03/28 23:30:32;;;;;;;14.70;5.97;;;;;;;4.11;43.82;98351.97;10010693;29;20386;-76
2023/03/28 23:35:52;;;;;;;11.85;5.18;;;;;;;4.05;43.97;98349.34;9997448;29;20057;-76
2023/03/28 23:41:14;;;;;;;12.20;5.40;;;;;;;4.00;43.88;98350.22;10009451;29;20044;-76
2023/03/28 23:46:34;;;;;;;15.25;5.38;;;;;;;3.91;43.76;98351.41;10010307;29;20066;-76
2023/03/28 23:51:55;;;;;;;13.70;4.82;;;;;;;3.97;43.85;98354.06;9997072;29;20405;-77
2023/03/28 23:57:16;;;;;;;12.75;4.88;;;;;;;4.07;44.28;98346.81;10009759;29;20095;-76
